sensor_id;sensor_type;location;lat;lon;timestamp;pressure;altitude;pressure_sealevel;temperature;humidity
18900;BME280;9582;52.018;6.306;2023-05-02T00:01:59;101207.09;;;9.39;100.00
18900;BME280;9582;52.018;6.306;2023-05-02T00:04:26;101202.66;;;9.41;100.00
18900;BME280;9582;52.018;6.306;2023-05-02T00:06:52;101219.13;;;9.43;100.00
18900;BME280;9582;52.018;6.306;2023-05-02T00:09:19;101212.91;;;9.47;100.00
18900;BME280;9582;52.018;6.306;2023-05-02T00:11:45;101217.06;;;9.52;100.00
18900;BME280;9582;52.018;6.306;2023-05-02T00:14:12;101220.38;;;9.57;100.00
18900;BME280;9582;52.018;6.306;2023-05-02T00:16:40;101217.63;;;9.62;100.00
18900;BME280;9582;52.018;6.306;2023-05-02T00:19:06;101220.91;;;9.67;100.00
18900;BME280;9582;52.018;6.306;2023-05-02T00:21:33;101221.56;;;9.73;100.00
18900;BME280;9582;52.018;6.306;2023-05-02T00:23:59;101215.38;;;9.76;100.00
18900;BME280;9582;52.018;6.306;2023-05-02T00:26:26;101217.88;;;9.79;100.00
18900;BME280;9582;52.018;6.306;2023-05-02T00:28:53;101219.47;;;9.83;100.00
18900;BME280;9582;52.018;6.306;2023-05-02T00:31:19;101224.44;;;9.91;100.00
18900;BME280;9582;52.018;6.306;2023-05-02T00:33:47;101230.28;;;9.97;100.00
18900;BME280;9582;52.018;6.306;2023-05-02T00:36:15;101231.78;;;10.04;100.00
18900;BME280;9582;52.018;6.306;2023-05-02T00:38:43;101242.13;;;10.07;100.00
18900;BME280;9582;52.018;6.306;2023-05-02T00:41:09;101256.75;;;10.11;100.00
18900;BME280;9582;52.018;6.306;2023-05-02T00:43:36;101262.78;;;10.15;100.00
18900;BME280;9582;52.018;6.306;2023-05-02T00:46:04;101260.84;;;10.20;100.00
18900;BME280;9582;52.018;6.306;2023-05-02T00:48:30;101271.16;;;10.24;100.00
18900;BME280;9582;52.018;6.306;2023-05-02T00:51:01;101275.34;;;10.28;100.00
18900;BME280;9582;52.018;6.306;2023-05-02T00:53:29;101283.06;;;10.31;100.00
18900;BME280;9582;52.018;6.306;2023-05-02T00:55:56;101287.28;;;10.35;100.00
18900;BME280;9582;52.018;6.306;2023-05-02T00:58:23;101288.09;;;10.37;100.00
18900;BME280;9582;52.018;6.306;2023-05-02T01:00:59;101287.13;;;10.40;100.00
18900;BME280;9582;52.018;6.306;2023-05-02T01:03:37;101282.63;;;10.43;100.00
18900;BME280;9582;52.018;6.306;2023-05-02T01:06:21;101290.41;;;10.45;100.00
18900;BME280;9582;52.018;6.306;2023-05-02T01:09:01;101292.97;;;10.47;100.00
18900;BME280;9582;52.018;6.306;2023-05-02T01:11:34;101293.81;;;10.47;100.00
18900;BME280;9582;52.018;6.306;2023-05-02T01:14:07;101297.34;;;10.46;100.00
18900;BME280;9582;52.018;6.306;2023-05-02T01:16:38;101291.28;;;10.46;100.00
18900;BME280;9582;52.018;6.306;2023-05-02T01:19:08;101293.03;;;10.45;100.00
18900;BME280;9582;52.018;6.306;2023-05-02T01:21:39;101280.88;;;10.44;100.00
18900;BME280;9582;52.018;6.306;2023-05-02T01:24:11;101283.50;;;10.44;100.00
18900;BME280;9582;52.018;6.306;2023-05-02T01:26:44;101288.72;;;10.44;100.00
18900;BME280;9582;52.018;6.306;2023-05-02T01:29:19;101282.63;;;10.43;100.00
18900;BME280;9582;52.018;6.306;2023-05-02T01:31:49;101285.19;;;10.45;100.00
18900;BME280;9582;52.018;6.306;2023-05-02T01:34:18;101290.38;;;10.47;100.00
18900;BME280;9582;52.018;6.306;2023-05-02T01:36:47;101289.44;;;10.48;100.00
18900;BME280;9582;52.018;6.306;2023-05-02T01:39:18;101292.00;;;10.49;100.00
18900;BME280;9582;52.018;6.306;2023-05-02T01:41:48;101288.53;;;10.49;100.00
18900;BME280;9582;52.018;6.306;2023-05-02T01:44:17;101293.78;;;10.49;100.00
18900;BME280;9582;52.018;6.306;2023-05-02T01:46:45;101295.50;;;10.50;100.00
18900;BME280;9582;52.018;6.306;2023-05-02T01:49:12;101300.66;;;10.51;100.00
18900;BME280;9582;52.018;6.306;2023-05-02T01:51:43;101297.13;;;10.52;100.00
18900;BME280;9582;52.018;6.306;2023-05-02T01:54:12;101304.13;;;10.52;100.00
18900;BME280;9582;52.018;6.306;2023-05-02T01:56:40;101305.88;;;10.51;100.00
18900;BME280;9582;52.018;6.306;2023-05-02T01:59:11;101308.56;;;10.50;100.00
18900;BME280;9582;52.018;6.306;2023-05-02T02:01:40;101322.41;;;10.52;100.00
18900;BME280;9582;52.018;6.306;2023-05-02T02:04:11;101322.41;;;10.52;100.00
18900;BME280;9582;52.018;6.306;2023-05-02T02:06:41;101328.50;;;10.52;100.00
18900;BME280;9582;52.018;6.306;2023-05-02T02:09:09;101332.91;;;10.50;100.00
18900;BME280;9582;52.018;6.306;2023-05-02T02:11:43;101352.94;;;10.51;100.00
18900;BME280;9582;52.018;6.306;2023-05-02T02:14:16;101353.00;;;10.50;100.00
18900;BME280;9582;52.018;6.306;2023-05-02T02:16:45;101359.13;;;10.49;100.00
18900;BME280;9582;52.018;6.306;2023-05-02T02:19:13;101373.06;;;10.49;100.00
18900;BME280;9582;52.018;6.306;2023-05-02T02:21:42;101383.63;;;10.46;100.00
18900;BME280;9582;52.018;6.306;2023-05-02T02:24:09;101401.97;;;10.44;100.00
18900;BME280;9582;52.018;6.306;2023-05-02T02:26:37;101409.97;;;10.40;100.00
18900;BME280;9582;52.018;6.306;2023-05-02T02:29:03;101411.84;;;10.36;100.00
18900;BME280;9582;52.018;6.306;2023-05-02T02:31:30;101420.06;;;10.26;100.00
18900;BME280;9582;52.018;6.306;2023-05-02T02:33:58;101427.97;;;10.24;100.00
18900;BME280;9582;52.018;6.306;2023-05-02T02:36:29;101462.06;;;10.20;100.00
18900;BME280;9582;52.018;6.306;2023-05-02T02:39:03;101471.72;;;10.18;100.00
18900;BME280;9582;52.018;6.306;2023-05-02T02:41:39;101485.66;;;10.18;100.00
18900;BME280;9582;52.018;6.306;2023-05-02T02:44:21;101510.06;;;10.17;100.00
18900;BME280;9582;52.018;6.306;2023-05-02T02:46:59;101541.50;;;10.16;100.00
18900;BME280;9582;52.018;6.306;2023-05-02T02:49:34;101548.47;;;10.15;100.00
18900;BME280;9582;52.018;6.306;2023-05-02T02:52:08;101559.00;;;10.12;100.00
18900;BME280;9582;52.018;6.306;2023-05-02T02:54:40;101573.00;;;10.10;100.00
18900;BME280;9582;52.018;6.306;2023-05-02T02:57:29;101591.34;;;10.08;100.00
18900;BME280;9582;52.018;6.306;2023-05-02T03:00:00;101592.34;;;10.04;100.00
18900;BME280;9582;52.018;6.306;2023-05-02T03:02:30;101598.47;;;10.03;100.00
18900;BME280;9582;52.018;6.306;2023-05-02T03:05:00;101602.88;;;10.01;100.00
18900;BME280;9582;52.018;6.306;2023-05-02T03:07:28;101614.41;;;9.94;100.00
18900;BME280;9582;52.018;6.306;2023-05-02T03:09:56;101615.31;;;9.93;100.00
18900;BME280;9582;52.018;6.306;2023-05-02T03:12:23;101625.88;;;9.90;100.00
18900;BME280;9582;52.018;6.306;2023-05-02T03:14:50;101624.06;;;9.92;100.00
18900;BME280;9582;52.018;6.306;2023-05-02T03:17:16;101635.53;;;9.86;100.00
18900;BME280;9582;52.018;6.306;2023-05-02T03:19:44;101629.44;;;9.86;100.00
18900;BME280;9582;52.018;6.306;2023-05-02T03:22:13;101642.59;;;9.83;100.00
18900;BME280;9582;52.018;6.306;2023-05-02T03:24:39;101645.22;;;9.83;100.00
18900;BME280;9582;52.018;6.306;2023-05-02T03:27:07;101651.28;;;9.83;100.00
18900;BME280;9582;52.018;6.306;2023-05-02T03:29:39;101652.19;;;9.82;100.00
18900;BME280;9582;52.018;6.306;2023-05-02T03:32:06;101650.53;;;9.80;100.00
18900;BME280;9582;52.018;6.306;2023-05-02T03:34:33;101654.84;;;9.81;100.00
18900;BME280;9582;52.018;6.306;2023-05-02T03:37:00;101654.88;;;9.79;100.00
18900;BME280;9582;52.018;6.306;2023-05-02T03:39:29;101651.53;;;9.76;100.00
18900;BME280;9582;52.018;6.306;2023-05-02T03:41:56;101660.22;;;9.76;100.00
18900;BME280;9582;52.018;6.306;2023-05-02T03:44:23;101661.03;;;9.77;100.00
18900;BME280;9582;52.018;6.306;2023-05-02T03:46:50;101657.59;;;9.76;100.00
18900;BME280;9582;52.018;6.306;2023-05-02T03:49:16;101649.78;;;9.75;100.00
18900;BME280;9582;52.018;6.306;2023-05-02T03:51:45;101649.84;;;9.73;100.00
18900;BME280;9582;52.018;6.306;2023-05-02T03:54:15;101648.13;;;9.72;100.00
18900;BME280;9582;52.018;6.306;2023-05-02T03:56:43;101608.97;;;9.72;100.00
18900;BME280;9582;52.018;6.306;2023-05-02T03:59:21;101609.03;;;9.69;100.00
18900;BME280;9582;52.018;6.306;2023-05-02T04:01:48;101579.47;;;9.69;100.00
18900;BME280;9582;52.018;6.306;2023-05-02T04:04:16;101577.75;;;9.68;100.00
18900;BME280;9582;52.018;6.306;2023-05-02T04:06:48;101570.81;;;9.67;100.00
18900;BME280;9582;52.018;6.306;2023-05-02T04:09:15;101530.84;;;9.65;100.00
18900;BME280;9582;52.018;6.306;2023-05-02T04:11:55;101527.41;;;9.63;100.00
18900;BME280;9582;52.018;6.306;2023-05-02T04:14:22;101525.72;;;9.62;100.00
18900;BME280;9582;52.018;6.306;2023-05-02T04:16:51;101520.50;;;9.62;100.00
18900;BME280;9582;52.018;6.306;2023-05-02T04:19:30;101526.56;;;9.62;100.00
18900;BME280;9582;52.018;6.306;2023-05-02T04:21:57;101524.00;;;9.61;100.00
18900;BME280;9582;52.018;6.306;2023-05-02T04:24:23;101518.78;;;9.61;100.00
18900;BME280;9582;52.018;6.306;2023-05-02T04:26:50;101490.09;;;9.59;100.00
18900;BME280;9582;52.018;6.306;2023-05-02T04:29:18;101492.72;;;9.59;100.00
18900;BME280;9582;52.018;6.306;2023-05-02T04:31:44;101496.16;;;9.60;100.00
18900;BME280;9582;52.018;6.306;2023-05-02T04:34:13;101501.38;;;9.60;100.00
18900;BME280;9582;52.018;6.306;2023-05-02T04:36:44;101517.25;;;9.54;100.00
18900;BME280;9582;52.018;6.306;2023-05-02T04:39:13;101529.78;;;9.41;100.00
18900;BME280;9582;52.018;6.306;2023-05-02T04:41:45;101540.66;;;9.26;100.00
18900;BME280;9582;52.018;6.306;2023-05-02T04:44:13;101533.94;;;9.17;100.00
18900;BME280;9582;52.018;6.306;2023-05-02T04:46:41;101546.25;;;9.12;100.00
18900;BME280;9582;52.018;6.306;2023-05-02T04:49:08;101547.34;;;9.05;100.00
18900;BME280;9582;52.018;6.306;2023-05-02T04:51:35;101552.66;;;9.01;100.00
18900;BME280;9582;52.018;6.306;2023-05-02T04:54:02;101557.94;;;8.98;100.00
18900;BME280;9582;52.018;6.306;2023-05-02T04:56:29;101555.31;;;8.99;100.00
18900;BME280;9582;52.018;6.306;2023-05-02T04:58:55;101568.31;;;9.01;100.00
18900;BME280;9582;52.018;6.306;2023-05-02T05:01:23;101576.19;;;8.99;100.00
18900;BME280;9582;52.018;6.306;2023-05-02T05:03:54;101570.97;;;8.99;100.00
18900;BME280;9582;52.018;6.306;2023-05-02T05:06:21;101577.06;;;8.98;100.00
18900;BME280;9582;52.018;6.306;2023-05-02T05:08:48;101579.69;;;8.98;100.00
18900;BME280;9582;52.018;6.306;2023-05-02T05:11:15;101583.97;;;9.01;100.00
18900;BME280;9582;52.018;6.306;2023-05-02T05:13:41;101581.41;;;8.99;100.00
18900;BME280;9582;52.018;6.306;2023-05-02T05:16:10;101583.97;;;9.01;100.00
18900;BME280;9582;52.018;6.306;2023-05-02T05:18:37;101590.81;;;9.05;100.00
18900;BME280;9582;52.018;6.306;2023-05-02T05:21:09;101593.44;;;9.03;100.00
18900;BME280;9582;52.018;6.306;2023-05-02T05:23:36;101592.69;;;9.00;100.00
18900;BME280;9582;52.018;6.306;2023-05-02T05:26:14;101591.69;;;9.04;100.00
18900;BME280;9582;52.018;6.306;2023-05-02T05:28:44;101595.19;;;9.04;100.00
18900;BME280;9582;52.018;6.306;2023-05-02T05:31:13;101604.97;;;8.96;100.00
18900;BME280;9582;52.018;6.306;2023-05-02T05:33:42;101611.91;;;8.96;100.00
18900;BME280;9582;52.018;6.306;2023-05-02T05:36:12;101613.75;;;8.92;100.00
18900;BME280;9582;52.018;6.306;2023-05-02T05:38:39;101616.53;;;8.86;100.00
18900;BME280;9582;52.018;6.306;2023-05-02T05:41:08;101613.06;;;8.86;100.00
18900;BME280;9582;52.018;6.306;2023-05-02T05:43:37;101625.31;;;8.82;100.00
18900;BME280;9582;52.018;6.306;2023-05-02T05:46:04;101629.72;;;8.80;100.00
18900;BME280;9582;52.018;6.306;2023-05-02T05:48:32;101630.66;;;8.76;100.00
18900;BME280;9582;52.018;6.306;2023-05-02T05:51:02;101640.44;;;8.68;100.00
18900;BME280;9582;52.018;6.306;2023-05-02T05:53:30;101644.00;;;8.64;100.00
18900;BME280;9582;52.018;6.306;2023-05-02T05:55:58;101646.78;;;8.58;100.00
18900;BME280;9582;52.018;6.306;2023-05-02T05:58:24;101647.59;;;8.58;100.00
18900;BME280;9582;52.018;6.306;2023-05-02T06:00:53;101657.34;;;8.50;100.00
18900;BME280;9582;52.018;6.306;2023-05-02T06:03:20;101658.22;;;8.51;100.00
18900;BME280;9582;52.018;6.306;2023-05-02T06:05:46;101659.16;;;8.48;100.00
18900;BME280;9582;52.018;6.306;2023-05-02T06:08:13;101662.63;;;8.49;100.00
18900;BME280;9582;52.018;6.306;2023-05-02T06:10:40;101659.25;;;8.44;100.00
18900;BME280;9582;52.018;6.306;2023-05-02T06:13:07;101664.47;;;8.44;100.00
18900;BME280;9582;52.018;6.306;2023-05-02T06:15:37;101662.81;;;8.40;100.00
18900;BME280;9582;52.018;6.306;2023-05-02T06:18:05;101671.38;;;8.45;100.00
18900;BME280;9582;52.018;6.306;2023-05-02T06:20:32;101674.81;;;8.47;100.00
18900;BME280;9582;52.018;6.306;2023-05-02T06:22:58;101682.66;;;8.45;100.00
18900;BME280;9582;52.018;6.306;2023-05-02T06:25:25;101675.78;;;8.41;100.00
18900;BME280;9582;52.018;6.306;2023-05-02T06:27:52;101685.41;;;8.39;100.00
18900;BME280;9582;52.018;6.306;2023-05-02T06:30:19;101698.38;;;8.42;100.00
18900;BME280;9582;52.018;6.306;2023-05-02T06:32:45;101698.41;;;8.41;100.00
18900;BME280;9582;52.018;6.306;2023-05-02T06:35:12;101695.81;;;8.41;100.00
18900;BME280;9582;52.018;6.306;2023-05-02T06:37:39;101700.97;;;8.44;100.00
18900;BME280;9582;52.018;6.306;2023-05-02T06:40:06;101706.88;;;8.50;100.00
18900;BME280;9582;52.018;6.306;2023-05-02T06:42:33;101722.44;;;8.55;100.00
18900;BME280;9582;52.018;6.306;2023-05-02T06:45:01;101713.75;;;8.54;100.00
18900;BME280;9582;52.018;6.306;2023-05-02T06:47:28;101731.19;;;8.51;100.00
18900;BME280;9582;52.018;6.306;2023-05-02T06:49:54;101737.28;;;8.51;100.00
18900;BME280;9582;52.018;6.306;2023-05-02T06:52:21;101739.06;;;8.49;100.00
18900;BME280;9582;52.018;6.306;2023-05-02T06:54:47;101752.16;;;8.46;100.00
18900;BME280;9582;52.018;6.306;2023-05-02T06:57:14;101750.38;;;8.48;100.00
18900;BME280;9582;52.018;6.306;2023-05-02T06:59:41;101753.00;;;8.47;100.00
18900;BME280;9582;52.018;6.306;2023-05-02T07:02:08;101749.50;;;8.49;100.00
18900;BME280;9582;52.018;6.306;2023-05-02T07:04:35;101760.75;;;8.50;100.00
18900;BME280;9582;52.018;6.306;2023-05-02T07:07:02;101758.06;;;8.53;100.00
18900;BME280;9582;52.018;6.306;2023-05-02T07:09:28;101760.78;;;8.48;100.00
18900;BME280;9582;52.018;6.306;2023-05-02T07:11:55;101775.44;;;8.54;100.00
18900;BME280;9582;52.018;6.306;2023-05-02T07:14:21;101765.78;;;8.59;100.00
18900;BME280;9582;52.018;6.306;2023-05-02T07:16:48;101782.22;;;8.61;100.00
18900;BME280;9582;52.018;6.306;2023-05-02T07:19:16;101788.28;;;8.63;100.00
18900;BME280;9582;52.018;6.306;2023-05-02T07:21:42;101774.97;;;8.75;100.00
18900;BME280;9582;52.018;6.306;2023-05-02T07:24:09;101792.09;;;8.87;100.00
18900;BME280;9582;52.018;6.306;2023-05-02T07:26:35;101821.84;;;8.80;100.00
18900;BME280;9582;52.018;6.306;2023-05-02T07:29:02;101833.13;;;8.80;100.00
18900;BME280;9582;52.018;6.306;2023-05-02T07:31:31;101829.31;;;8.95;100.00
18900;BME280;9582;52.018;6.306;2023-05-02T07:33:57;101837.38;;;8.84;100.00
18900;BME280;9582;52.018;6.306;2023-05-02T07:36:25;101879.94;;;8.86;100.00
18900;BME280;9582;52.018;6.306;2023-05-02T07:38:52;101931.16;;;8.90;100.00
18900;BME280;9582;52.018;6.306;2023-05-02T07:41:18;101933.72;;;8.92;100.00
18900;BME280;9582;52.018;6.306;2023-05-02T07:43:45;101953.56;;;9.00;100.00
18900;BME280;9582;52.018;6.306;2023-05-02T07:46:11;101952.59;;;9.04;100.00
18900;BME280;9582;52.018;6.306;2023-05-02T07:48:38;101945.22;;;9.24;100.00
18900;BME280;9582;52.018;6.306;2023-05-02T07:51:06;101942.78;;;9.15;100.00
18900;BME280;9582;52.018;6.306;2023-05-02T07:53:34;101966.44;;;9.06;100.00
18900;BME280;9582;52.018;6.306;2023-05-02T07:56:02;101966.50;;;9.05;100.00
18900;BME280;9582;52.018;6.306;2023-05-02T07:58:29;101977.13;;;8.96;100.00
18900;BME280;9582;52.018;6.306;2023-05-02T08:00:56;101976.19;;;8.98;100.00
18900;BME280;9582;52.018;6.306;2023-05-02T08:03:22;101993.75;;;8.90;100.00
18900;BME280;9582;52.018;6.306;2023-05-02T08:05:49;102004.41;;;8.78;100.00
18900;BME280;9582;52.018;6.306;2023-05-02T08:08:16;102023.53;;;8.79;100.00
18900;BME280;9582;52.018;6.306;2023-05-02T08:10:45;102027.75;;;8.84;100.00
18900;BME280;9582;52.018;6.306;2023-05-02T08:13:12;102055.47;;;8.90;100.00
18900;BME280;9582;52.018;6.306;2023-05-02T08:15:38;102054.41;;;9.01;100.00
18900;BME280;9582;52.018;6.306;2023-05-02T08:18:05;102071.72;;;9.05;100.00
18900;BME280;9582;52.018;6.306;2023-05-02T08:20:31;102078.69;;;9.03;100.00
18900;BME280;9582;52.018;6.306;2023-05-02T08:22:58;102094.34;;;9.03;100.00
18900;BME280;9582;52.018;6.306;2023-05-02T08:25:24;102101.16;;;9.13;100.00
18900;BME280;9582;52.018;6.306;2023-05-02T08:27:52;102112.97;;;9.33;100.00
18900;BME280;9582;52.018;6.306;2023-05-02T08:30:18;102123.78;;;9.57;100.00
18900;BME280;9582;52.018;6.306;2023-05-02T08:32:45;102125.94;;;9.80;100.00
18900;BME280;9582;52.018;6.306;2023-05-02T08:35:12;102139.75;;;9.85;100.00
18900;BME280;9582;52.018;6.306;2023-05-02T08:37:38;102150.88;;;9.96;100.00
18900;BME280;9582;52.018;6.306;2023-05-02T08:40:07;102153.53;;;9.93;100.00
18900;BME280;9582;52.018;6.306;2023-05-02T08:42:36;102167.00;;;10.16;100.00
18900;BME280;9582;52.018;6.306;2023-05-02T08:45:10;102164.84;;;10.35;100.00
18900;BME280;9582;52.018;6.306;2023-05-02T08:47:37;102174.06;;;10.51;100.00
18900;BME280;9582;52.018;6.306;2023-05-02T08:50:06;102177.19;;;10.67;100.00
18900;BME280;9582;52.018;6.306;2023-05-02T08:52:33;102191.41;;;10.55;100.00
18900;BME280;9582;52.018;6.306;2023-05-02T08:55:01;102204.50;;;10.54;100.00
18900;BME280;9582;52.018;6.306;2023-05-02T08:57:28;102212.97;;;10.25;100.00
18900;BME280;9582;52.018;6.306;2023-05-02T08:59:55;102215.16;;;10.03;100.00
18900;BME280;9582;52.018;6.306;2023-05-02T09:02:36;102218.31;;;9.76;100.00
18900;BME280;9582;52.018;6.306;2023-05-02T09:05:07;102227.19;;;9.66;100.00
18900;BME280;9582;52.018;6.306;2023-05-02T09:07:43;102213.97;;;9.76;100.00
18900;BME280;9582;52.018;6.306;2023-05-02T09:10:10;102234.66;;;9.85;100.00
18900;BME280;9582;52.018;6.306;2023-05-02T09:12:37;102226.06;;;9.82;100.00
18900;BME280;9582;52.018;6.306;2023-05-02T09:15:11;102220.13;;;9.72;100.00
18900;BME280;9582;52.018;6.306;2023-05-02T09:20:07;102231.78;;;9.99;100.00
18900;BME280;9582;52.018;6.306;2023-05-02T09:22:35;102251.84;;;9.99;100.00
18900;BME280;9582;52.018;6.306;2023-05-02T09:25:03;102236.88;;;10.05;100.00
18900;BME280;9582;52.018;6.306;2023-05-02T09:27:47;102249.91;;;10.08;100.00
18900;BME280;9582;52.018;6.306;2023-05-02T09:30:20;102247.13;;;10.17;100.00
18900;BME280;9582;52.018;6.306;2023-05-02T09:32:48;102261.16;;;10.13;100.00
18900;BME280;9582;52.018;6.306;2023-05-02T09:35:16;102254.97;;;10.19;100.00
18900;BME280;9582;52.018;6.306;2023-05-02T09:37:50;102261.06;;;10.18;100.00
18900;BME280;9582;52.018;6.306;2023-05-02T09:40:17;102270.53;;;10.23;100.00
18900;BME280;9582;52.018;6.306;2023-05-02T09:42:44;102282.06;;;10.13;100.00
18900;BME280;9582;52.018;6.306;2023-05-02T09:45:19;102291.66;;;10.11;100.00
18900;BME280;9582;52.018;6.306;2023-05-02T09:47:47;102279.09;;;10.71;100.00
18900;BME280;9582;52.018;6.306;2023-05-02T09:50:32;102273.28;;;11.32;100.00
18900;BME280;9582;52.018;6.306;2023-05-02T09:53:00;102271.97;;;11.51;100.00
18900;BME280;9582;52.018;6.306;2023-05-02T09:55:26;102279.66;;;11.22;100.00
18900;BME280;9582;52.018;6.306;2023-05-02T09:57:53;102288.31;;;11.26;100.00
18900;BME280;9582;52.018;6.306;2023-05-02T10:00:20;102297.91;;;11.25;100.00
18900;BME280;9582;52.018;6.306;2023-05-02T10:02:49;102280.22;;;11.69;100.00
18900;BME280;9582;52.018;6.306;2023-05-02T10:05:17;102290.63;;;11.73;100.00
18900;BME280;9582;52.018;6.306;2023-05-02T10:07:45;102313.63;;;11.60;100.00
18900;BME280;9582;52.018;6.306;2023-05-02T10:10:16;102323.44;;;11.52;100.00
18900;BME280;9582;52.018;6.306;2023-05-02T10:12:42;102327.75;;;11.18;100.00
18900;BME280;9582;52.018;6.306;2023-05-02T10:15:13;102334.56;;;10.87;100.00
18900;BME280;9582;52.018;6.306;2023-05-02T10:17:46;102322.44;;;11.23;100.00
18900;BME280;9582;52.018;6.306;2023-05-02T10:20:20;102330.94;;;11.31;100.00
18900;BME280;9582;52.018;6.306;2023-05-02T10:22:49;102322.00;;;11.76;100.00
18900;BME280;9582;52.018;6.306;2023-05-02T10:25:16;102318.94;;;11.93;100.00
18900;BME280;9582;52.018;6.306;2023-05-02T10:27:42;102328.91;;;11.79;100.00
18900;BME280;9582;52.018;6.306;2023-05-02T10:30:12;102338.59;;;11.77;100.00
18900;BME280;9582;52.018;6.306;2023-05-02T10:32:39;102335.59;;;11.55;100.00
18900;BME280;9582;52.018;6.306;2023-05-02T10:35:07;102338.41;;;11.47;100.00
18900;BME280;9582;52.018;6.306;2023-05-02T10:37:37;102348.34;;;11.70;100.00
18900;BME280;9582;52.018;6.306;2023-05-02T10:40:05;102373.88;;;11.60;100.00
18900;BME280;9582;52.018;6.306;2023-05-02T10:42:36;102389.13;;;11.43;100.00
18900;BME280;9582;52.018;6.306;2023-05-02T10:45:04;102387.16;;;11.16;100.00
18900;BME280;9582;52.018;6.306;2023-05-02T10:47:31;102376.00;;;11.45;100.00
18900;BME280;9582;52.018;6.306;2023-05-02T10:50:00;102392.00;;;11.34;100.00
18900;BME280;9582;52.018;6.306;2023-05-02T10:52:28;102405.22;;;11.27;100.00
18900;BME280;9582;52.018;6.306;2023-05-02T10:55:19;102390.53;;;11.95;100.00
18900;BME280;9582;52.018;6.306;2023-05-02T10:58:19;102386.59;;;12.43;100.00
18900;BME280;9582;52.018;6.306;2023-05-02T11:00:49;102407.00;;;12.00;100.00
18900;BME280;9582;52.018;6.306;2023-05-02T11:03:52;102419.09;;;11.70;100.00
18900;BME280;9582;52.018;6.306;2023-05-02T11:06:18;102402.16;;;12.19;100.00
18900;BME280;9582;52.018;6.306;2023-05-02T11:08:45;102411.75;;;12.50;100.00
18900;BME280;9582;52.018;6.306;2023-05-02T11:11:41;102431.44;;;12.34;100.00
18900;BME280;9582;52.018;6.306;2023-05-02T11:14:09;102421.81;;;12.35;100.00
18900;BME280;9582;52.018;6.306;2023-05-02T11:17:08;102413.59;;;12.16;100.00
18900;BME280;9582;52.018;6.306;2023-05-02T11:22:55;102416.13;;;12.19;100.00
18900;BME280;9582;52.018;6.306;2023-05-02T11:25:33;102414.22;;;12.56;100.00
18900;BME280;9582;52.018;6.306;2023-05-02T11:28:01;102409.66;;;12.32;100.00
18900;BME280;9582;52.018;6.306;2023-05-02T11:30:40;102408.56;;;11.73;100.00
18900;BME280;9582;52.018;6.306;2023-05-02T11:33:15;102409.53;;;11.68;100.00
18900;BME280;9582;52.018;6.306;2023-05-02T11:35:43;102396.13;;;11.81;100.00
18900;BME280;9582;52.018;6.306;2023-05-02T11:38:13;102405.59;;;11.87;100.00
18900;BME280;9582;52.018;6.306;2023-05-02T11:40:40;102409.19;;;12.16;100.00
18900;BME280;9582;52.018;6.306;2023-05-02T11:43:15;102398.09;;;12.07;100.00
18900;BME280;9582;52.018;6.306;2023-05-02T11:45:42;102402.59;;;12.34;100.00
18900;BME280;9582;52.018;6.306;2023-05-02T11:48:10;102408.41;;;12.13;100.00
18900;BME280;9582;52.018;6.306;2023-05-02T11:50:41;102422.97;;;11.91;100.00
18900;BME280;9582;52.018;6.306;2023-05-02T11:53:11;102422.56;;;12.06;100.00
18900;BME280;9582;52.018;6.306;2023-05-02T11:55:44;102436.50;;;12.08;100.00
18900;BME280;9582;52.018;6.306;2023-05-02T11:58:14;102462.09;;;11.98;100.00
18900;BME280;9582;52.018;6.306;2023-05-02T12:00:41;102448.88;;;12.03;100.00
18900;BME280;9582;52.018;6.306;2023-05-02T12:03:21;102458.19;;;12.14;100.00
18900;BME280;9582;52.018;6.306;2023-05-02T12:05:48;102456.38;;;12.16;100.00
18900;BME280;9582;52.018;6.306;2023-05-02T12:08:20;102446.53;;;12.26;100.00
18900;BME280;9582;52.018;6.306;2023-05-02T12:10:48;102452.94;;;12.48;100.00
18900;BME280;9582;52.018;6.306;2023-05-02T12:13:16;102446.25;;;12.69;100.00
18900;BME280;9582;52.018;6.306;2023-05-02T12:15:43;102466.44;;;12.67;100.00
18900;BME280;9582;52.018;6.306;2023-05-02T12:18:11;102468.88;;;12.73;100.00
18900;BME280;9582;52.018;6.306;2023-05-02T12:20:38;102459.88;;;13.14;100.00
18900;BME280;9582;52.018;6.306;2023-05-02T12:23:05;102466.56;;;13.24;100.00
18900;BME280;9582;52.018;6.306;2023-05-02T12:25:36;102469.47;;;13.15;100.00
18900;BME280;9582;52.018;6.306;2023-05-02T12:28:03;102463.28;;;12.85;100.00
18900;BME280;9582;52.018;6.306;2023-05-02T12:30:32;102466.41;;;12.35;100.00
18900;BME280;9582;52.018;6.306;2023-05-02T12:32:59;102469.16;;;11.95;100.00
18900;BME280;9582;52.018;6.306;2023-05-02T12:35:27;102474.41;;;11.96;100.00
18900;BME280;9582;52.018;6.306;2023-05-02T12:37:53;102462.75;;;12.42;100.00
18900;BME280;9582;52.018;6.306;2023-05-02T12:40:20;102479.56;;;12.67;100.00
18900;BME280;9582;52.018;6.306;2023-05-02T12:42:58;102484.03;;;12.94;100.00
18900;BME280;9582;52.018;6.306;2023-05-02T12:45:28;102492.16;;;13.17;100.00
18900;BME280;9582;52.018;6.306;2023-05-02T12:47:59;102493.84;;;13.20;100.00
18900;BME280;9582;52.018;6.306;2023-05-02T12:50:36;102486.31;;;13.08;100.00
18900;BME280;9582;52.018;6.306;2023-05-02T12:53:03;102494.13;;;13.40;100.00
18900;BME280;9582;52.018;6.306;2023-05-02T12:55:30;102491.03;;;13.26;100.00
18900;BME280;9582;52.018;6.306;2023-05-02T12:58:01;102497.41;;;12.87;100.00
18900;BME280;9582;52.018;6.306;2023-05-02T13:00:28;102499.22;;;12.51;100.00
18900;BME280;9582;52.018;6.306;2023-05-02T13:02:54;102496.72;;;12.46;100.00
18900;BME280;9582;52.018;6.306;2023-05-02T13:05:22;102498.91;;;12.29;100.00
18900;BME280;9582;52.018;6.306;2023-05-02T13:07:49;102494.09;;;12.46;100.00
18900;BME280;9582;52.018;6.306;2023-05-02T13:10:16;102490.81;;;12.70;100.00
18900;BME280;9582;52.018;6.306;2023-05-02T13:12:43;102496.53;;;12.86;100.00